ADDS METAR Data INFO
IDs: Format: Raw Decoded Include TAF

Data at: 2224 UTC 22 Aug 2017

KHBV 222215Z AUTO 16012G16KT 10SM SCT065 SCT070 BKN085 36/18 A2996 RMK AO2 T03560178
KHBV 222155Z AUTO 14013G19KT 10SM BKN065 BKN100 36/17 A2996 RMK AO2 T03620172
KHBV 222135Z AUTO 14010G15KT 10SM SCT065 BKN090 36/16 A2998 RMK AO2 T03600162
KHBV 222115Z AUTO 00000KT 10SM CLR 36/16 A2998 RMK AO2 T03550159
KHBV 222055Z AUTO 17007KT 10SM CLR 35/16 A2999 RMK AO2 T03530159
KHBV 222035Z AUTO 12008KT 10SM CLR 35/16 A3000 RMK AO2 T03470163
KHBV 222015Z AUTO 10005KT 10SM CLR 34/17 A3000 RMK AO2 T03430170
KHBV 221955Z AUTO 11006G09KT 10SM SCT050 SCT110 33/18 A3002 RMK AO2 T03330175
KHBV 221935Z AUTO 14003KT 10SM SCT050 BKN110 33/18 A3003 RMK AO2 T03340182
KHBV 221915Z AUTO 10004KT 10SM SCT050 BKN100 33/18 A3004 RMK AO2 T03320183
KHBV 221855Z AUTO 12010G14KT 10SM SCT049 BKN090 34/18 A3005 RMK AO2 T03380181
KHBV 221835Z AUTO 11003G15KT 10SM SCT049 SCT055 BKN090 33/18 A3005 RMK AO2 T03320184
KHBV 221815Z AUTO 13005KT 10SM SCT047 BKN055 BKN065 33/19 A3005 RMK AO2 T03260188
KHBV 221755Z AUTO 08006KT 10SM BKN065 BKN080 33/19 A3006 RMK AO2 T03250188 10397 20213
KHBV 221735Z AUTO 13006KT 10SM SCT043 SCT055 BKN065 32/19 A3007 RMK AO2 T03200192
KHBV 221715Z AUTO 14006KT 10SM SCT042 SCT060 32/19 A3006 RMK AO2 T03170194
KHBV 221655Z AUTO 17006KT 10SM SCT060 31/20 A3007 RMK AO2 T03140196
KHBV 221635Z AUTO 13007KT 10SM SCT034 31/20 A3007 RMK AO2 T03110198
KHBV 221615Z AUTO 14003KT 10SM SCT046 30/20 A3007 RMK AO2 T03040200
KHBV 221555Z AUTO 13006KT 10SM SCT032 30/20 A3007 RMK AO2 T02990200
KHBV 221535Z AUTO 16005KT 10SM SCT028 SCT032 SCT044 29/21 A3006 RMK AO2 T02930210
KHBV 221515Z AUTO 12005KT 10SM SCT021 SCT029 SCT044 29/22 A3006 RMK AO2 T02860217
KHBV 221455Z AUTO 00000KT 10SM SCT021 BKN027 28/22 A3006 RMK AO2 T02780220
KHBV 221435Z AUTO 16005KT 10SM SCT011 SCT015 BKN021 27/22 A3006 RMK AO2 T02730224
KHBV 221415Z AUTO 18005KT 10SM SCT009 BKN017 BKN029 26/23 A3005 RMK AO2 T02630230
KHBV 221355Z AUTO 00000KT 10SM CLR 25/23 A3004 RMK AO2 T02530229
KHBV 221335Z AUTO 00000KT 10SM CLR 24/23 A3004 RMK AO2 T02380226
KHBV 221315Z AUTO 00000KT 7SM CLR 23/22 A3004 RMK AO2 T02280219
KHBV 221255Z AUTO 00000KT 5SM BR SCT001 SCT010 22/21 A3004 RMK AO2 T02210212
KHBV 221235Z AUTO 00000KT 5SM BR SCT001 BKN010 22/21 A3003 RMK AO2 T02190210
KHBV 221215Z AUTO 00000KT 4SM BR CLR 22/21 A3003 RMK AO2 T02200210
KHBV 221155Z AUTO 00000KT 7SM CLR 22/21 A3002 RMK AO2 T02240214 10397 20213
KHBV 221135Z AUTO 00000KT 10SM CLR 23/22 A3002 RMK AO2 T02290216
KHBV 221115Z AUTO 00000KT 10SM CLR 23/22 A3002 RMK AO2 T02300216
KHBV 221055Z AUTO 00000KT 10SM CLR 23/22 A3002 RMK AO2 T02290215
KHBV 221035Z AUTO 00000KT 10SM CLR 23/21 A3003 RMK AO2 T02280213
KHBV 221015Z AUTO 00000KT 10SM SCT011 23/22 A3003 RMK AO2 T02310215
KHBV 220955Z AUTO 00000KT 10SM SCT011 23/22 A3003 RMK AO2 T02340217
KHBV 220935Z AUTO 00000KT 10SM CLR 24/22 A3004 RMK AO2 T02360220
KHBV 220915Z AUTO 00000KT 10SM CLR 24/22 A3004 RMK AO2 T02360220
KHBV 220855Z AUTO 00000KT 10SM SCT015 SCT020 24/22 A3005 RMK AO2 T02370220
KHBV 220835Z AUTO 00000KT 10SM SCT015 24/22 A3005 RMK AO2 T02380218
KHBV 220815Z AUTO 00000KT 10SM SCT017 24/22 A3005 RMK AO2 T02400217
KHBV 220755Z AUTO 00000KT 10SM CLR 24/22 A3006 RMK AO2 T02380215
KHBV 220735Z AUTO 00000KT 10SM CLR 24/22 A3005 RMK AO2 T02400215
KHBV 220715Z AUTO 00000KT 10SM CLR 24/21 A3006 RMK AO2 T02400213
KHBV 220655Z AUTO 00000KT 10SM CLR 24/21 A3007 RMK AO2 T02430212
KHBV 220635Z AUTO 00000KT 10SM CLR 25/21 A3007 RMK AO2 T02460213
KHBV 220615Z AUTO 00000KT 10SM CLR 25/21 A3008 RMK AO2 T02480212
KHBV 220555Z AUTO 00000KT 10SM CLR 25/21 A3008 RMK AO2 T02520213 10397 20213 403970213
KHBV 220535Z AUTO 00000KT 10SM SCT018 25/21 A3009 RMK AO2 T02530213
KHBV 220515Z AUTO 00000KT 10SM SCT018 26/21 A3009 RMK AO2 T02550213
KHBV 220455Z AUTO 00000KT 10SM SCT017 26/21 A3009 RMK AO2 T02600213
KHBV 220435Z AUTO 00000KT 10SM CLR 26/21 A3009 RMK AO2 T02640212
KHBV 220415Z AUTO 13005KT 10SM CLR 27/21 A3008 RMK AO2 T02660212
KHBV 220355Z AUTO 13006KT 10SM CLR 27/21 A3008 RMK AO2 T02700212
KHBV 220335Z AUTO 13008KT 10SM CLR 27/21 A3007 RMK AO2 T02740211
KHBV 220315Z AUTO 13009KT 10SM CLR 28/21 A3006 RMK AO2 T02770211
KHBV 220255Z AUTO 13009KT 10SM CLR 28/21 A3005 RMK AO2 T02820211
KHBV 220235Z AUTO 13010G16KT 10SM CLR 29/21 A3004 RMK AO2 T02860207
KHBV 220215Z AUTO 14014G18KT 10SM CLR 29/20 A3003 RMK AO2 T02920202
KHBV 220155Z AUTO 13011G18KT 10SM CLR 30/20 A3002 RMK AO2 T02980195
KHBV 220135Z AUTO 13012G18KT 10SM CLR 31/19 A3001 RMK AO2 T03050189
KHBV 220115Z AUTO 12014G19KT 10SM CLR 31/19 A3000 RMK AO2 T03110186
KHBV 220055Z AUTO 13014G17KT 10SM CLR 32/19 A3000 RMK AO2 T03200185
KHBV 220035Z AUTO 12014G20KT 10SM CLR 33/17 A2998 RMK AO2 T03310174
KHBV 220015Z AUTO 12014KT 10SM CLR 34/17 A2998 RMK AO2 T03380165
KHBV 212355Z AUTO 13014KT 10SM CLR 34/16 A2998 RMK AO2 T03420162 10397 20213
KHBV 212335Z AUTO 13012KT 10SM CLR 35/16 A2997 RMK AO2 T03470162
KHBV 212315Z AUTO 11013G18KT 10SM CLR 35/17 A2997 RMK AO2 T03500165
KHBV 212255Z AUTO 14010G16KT 10SM SCT090 35/17 A2996 RMK AO2 T03490170
KHBV 212235Z AUTO 12009G16KT 10SM SCT090 35/18 A2998 RMK AO2 T03460175
KHBV 212215Z AUTO 13010G17KT 100V160 10SM SCT060 35/18 A2998 RMK AO2 T03530175
KHBV 212155Z AUTO 12010G17KT 10SM SCT065 SCT075 35/17 A2998 RMK AO2 T03520173
KHBV 212135Z AUTO 09010G15KT 10SM SCT065 BKN075 35/17 A2998 RMK AO2 T03540169
KHBV 212115Z AUTO 00000KT 10SM SCT065 35/17 A2998 RMK AO2 T03500168
KHBV 212055Z AUTO 10009KT 10SM CLR 35/17 A2999 RMK AO2 T03500167
KHBV 212035Z AUTO 11005G15KT 10SM SCT070 SCT080 35/17 A3000 RMK AO2 T03500169
KHBV 212015Z AUTO 11007KT 10SM SCT060 35/17 A3001 RMK AO2 T03460169
KHBV 211955Z AUTO 12007KT 10SM BKN060 34/17 A3002 RMK AO2 T03410169
KHBV 211935Z AUTO 13005KT 10SM SCT060 SCT070 34/17 A3002 RMK AO2 T03380174
KHBV 211915Z AUTO 16003KT 10SM SCT050 33/18 A3003 RMK AO2 T03330178
KHBV 211855Z AUTO 16005KT 10SM SCT050 SCT065 33/18 A3003 RMK AO2 T03260179
KHBV 211835Z AUTO 12007KT 10SM SCT050 33/18 A3003 RMK AO2 T03260184
KHBV 211815Z AUTO 11007KT 10SM CLR 32/19 A3004 RMK AO2 T03240187
KHBV 211755Z AUTO 11010KT 10SM SCT046 32/19 A3004 RMK AO2 T03210190 10397 20213
KHBV 211735Z AUTO 11009KT 10SM SCT044 32/19 A3005 RMK AO2 T03210193
KHBV 211715Z AUTO 14007KT 10SM BKN044 BKN050 32/20 A3005 RMK AO2 T03150198
KHBV 211655Z AUTO 15006KT 10SM SCT038 SCT044 SCT050 32/20 A3006 RMK AO2 T03150202
KHBV 211635Z AUTO 15007KT 10SM SCT033 SCT043 SCT050 31/21 A3007 RMK AO2 T03110205
KHBV 211615Z AUTO 13009KT 10SM CLR 31/21 A3007 RMK AO2 T03130205
KHBV 211555Z AUTO 14007KT 10SM CLR 30/21 A3006 RMK AO2 T03040210
KHBV 211535Z AUTO 13006KT 10SM SCT025 SCT030 SCT036 30/22 A3006 RMK AO2 T02950219
KHBV 211515Z AUTO 21007KT 10SM SCT022 SCT030 SCT036 29/22 A3006 RMK AO2 T02880224
KHBV 211455Z AUTO 14008KT 10SM SCT015 SCT021 28/23 A3006 RMK AO2 T02820227
KHBV 211435Z AUTO 16006KT 10SM BKN015 BKN021 28/23 A3006 RMK AO2 T02770230
KHBV 211415Z AUTO 15003KT 10SM CLR 26/24 A3006 RMK AO2 T02610239
KHBV 211355Z AUTO 00000KT 10SM BKN001 25/24 A3005 RMK AO2 T02470238
KHBV 211335Z AUTO 00000KT 1SM BR OVC001 24/23 A3006 RMK AO2 T02400233
KHBV 211315Z AUTO 00000KT 1/4SM FG OVC001 24/23 A3005 RMK AO2 T02350227
KHBV 211255Z AUTO 00000KT 1/2SM FG OVC001 23/22 A3005 RMK AO2 T02320224
KHBV 211235Z AUTO 00000KT 4SM BR BKN003 BKN021 23/22 A3004 RMK AO2 T02310222
KHBV 211215Z AUTO 00000KT 4SM BR SCT001 SCT021 23/22 A3004 RMK AO2 T02310221
KHBV 211155Z AUTO 00000KT 10SM CLR 23/22 A3004 RMK AO2 T02340224 10397 20213
KHBV 211135Z AUTO 00000KT 10SM SCT017 24/23 A3004 RMK AO2 T02350225
KHBV 211115Z AUTO 00000KT 10SM SCT015 SCT021 24/23 A3003 RMK AO2 T02350225
KHBV 211055Z AUTO 00000KT 10SM SCT014 24/23 A3003 RMK AO2 T02360225
KHBV 211035Z AUTO 00000KT 10SM CLR 24/23 A3003 RMK AO2 T02380226